Time;durP1;ratioP1;P1;durP2;ratioP2;P2;SDS_P1;SDS_P2;PMS_P1;PMS_P2;Temp;Humidity;BMP_temperature;BMP_pressure;BME280_temperature;BME280_humidity;BME280_pressure;Samples;Min_cycle;Max_cycle;Signal;HPM_P1;HPM_P2
2022/07/04 00:00:36;;;;;;;2.33;1.50;;;22.80;59.60;;;;;;4927970;29;20242;-47
2022/07/04 00:03:02;;;;;;;2.70;1.50;;;22.70;59.50;;;;;;4927999;29;20103;-47
2022/07/04 00:05:28;;;;;;;2.80;1.67;;;22.80;59.50;;;;;;4927473;29;20028;-48
2022/07/04 00:07:54;;;;;;;2.78;1.70;;;22.80;59.70;;;;;;4927850;29;20472;-47
2022/07/04 00:10:22;;;;;;;2.60;1.52;;;22.80;59.60;;;;;;4926382;29;20051;-48
2022/07/04 00:12:48;;;;;;;4.90;1.70;;;22.80;59.50;;;;;;4921641;29;20036;-48
2022/07/04 00:15:15;;;;;;;3.22;1.40;;;22.80;60.40;;;;;;4924426;29;20384;-48
2022/07/04 00:17:41;;;;;;;2.50;1.38;;;22.80;59.50;;;;;;4923856;29;20700;-49
2022/07/04 00:20:08;;;;;;;2.75;1.40;;;22.80;59.50;;;;;;4926710;29;20063;-48
2022/07/04 00:22:34;;;;;;;2.65;1.60;;;22.80;59.50;;;;;;4926855;29;20023;-48
2022/07/04 00:25:00;;;;;;;4.05;1.58;;;22.80;59.50;;;;;;4925043;29;20020;-48
2022/07/04 00:27:26;;;;;;;3.38;1.65;;;22.80;59.50;;;;;;4922429;29;20031;-48
2022/07/04 00:29:52;;;;;;;2.72;1.50;;;22.80;59.50;;;;;;4924786;29;20039;-48
2022/07/04 00:32:18;;;;;;;2.58;1.48;;;22.80;59.50;;;;;;4927129;29;20066;-48
2022/07/04 00:34:44;;;;;;;3.15;1.50;;;22.80;59.60;;;;;;4927564;29;20464;-48
2022/07/04 00:37:10;;;;;;;2.88;1.60;;;22.80;59.50;;;;;;4927335;29;20063;-48
2022/07/04 00:39:36;;;;;;;2.90;1.83;;;22.80;59.70;;;;;;4926988;29;20031;-48
2022/07/04 00:42:02;;;;;;;3.63;1.70;;;22.70;59.70;;;;;;4927023;29;20107;-48
2022/07/04 00:44:29;;;;;;;3.03;1.35;;;22.70;59.70;;;;;;4927357;29;20059;-48
2022/07/04 00:46:55;;;;;;;3.25;1.58;;;22.70;59.50;;;;;;4927025;29;20028;-48
2022/07/04 00:49:20;;;;;;;2.78;1.70;;;22.70;59.70;;;;;;4917918;29;20055;-48
2022/07/04 00:51:47;;;;;;;2.60;1.58;;;22.70;59.70;;;;;;4923514;29;20075;-48
2022/07/04 00:54:15;;;;;;;2.88;1.50;;;22.70;59.70;;;;;;4928966;29;20035;-49
2022/07/04 00:56:43;;;;;;;3.33;1.98;;;22.70;59.70;;;;;;4926841;29;20696;-48
2022/07/04 00:59:09;;;;;;;3.45;1.70;;;22.70;59.70;;;;;;4926389;29;20256;-48
2022/07/04 01:01:35;;;;;;;3.35;1.50;;;22.70;59.60;;;;;;4925036;29;20163;-47
2022/07/04 01:04:03;;;;;;;2.95;1.80;;;22.70;59.50;;;;;;4915514;29;20531;-49
2022/07/04 01:06:30;;;;;;;3.40;1.73;;;22.70;59.60;;;;;;4927449;29;20404;-48
2022/07/04 01:08:57;;;;;;;2.95;1.50;;;22.70;59.50;;;;;;4913387;29;20039;-48
2022/07/04 01:11:23;;;;;;;3.38;1.65;;;22.70;59.50;;;;;;4910247;29;20119;-48
2022/07/04 01:13:49;;;;;;;4.07;1.73;;;22.70;59.50;;;;;;4927183;29;20376;-48
2022/07/04 01:16:15;;;;;;;2.50;1.50;;;22.60;59.40;;;;;;4925024;29;20038;-48
2022/07/04 01:18:41;;;;;;;2.92;1.80;;;22.60;59.60;;;;;;4926931;29;20099;-48
2022/07/04 01:21:07;;;;;;;3.70;1.65;;;22.60;59.60;;;;;;4926067;29;20032;-48
2022/07/04 01:23:38;;;;;;;2.55;1.58;;;22.60;59.60;;;;;;4925352;29;20031;-48
2022/07/04 01:26:04;;;;;;;2.63;1.55;;;22.60;59.40;;;;;;4918765;29;20032;-48
2022/07/04 01:28:30;;;;;;;3.72;1.60;;;22.60;59.50;;;;;;4925632;29;20028;-48
2022/07/04 01:30:55;;;;;;;3.17;1.50;;;22.60;59.60;;;;;;4926196;29;20062;-48
2022/07/04 01:33:21;;;;;;;3.20;1.90;;;22.50;59.60;;;;;;4926491;29;20034;-48
2022/07/04 01:35:47;;;;;;;3.28;1.80;;;22.50;59.60;;;;;;4927194;29;20062;-48
2022/07/04 01:38:13;;;;;;;3.45;1.65;;;22.50;59.60;;;;;;4926330;29;20404;-48
2022/07/04 01:40:39;;;;;;;2.17;1.38;;;22.50;59.60;;;;;;4926420;29;20031;-48
2022/07/04 01:43:05;;;;;;;4.38;2.03;;;22.50;59.60;;;;;;4925166;29;20036;-48
2022/07/04 01:45:34;;;;;;;2.72;1.67;;;22.50;59.50;;;;;;4926149;29;20595;-48
2022/07/04 01:48:00;;;;;;;3.30;1.60;;;22.50;59.60;;;;;;4925632;29;20028;-48
2022/07/04 01:50:26;;;;;;;2.70;1.60;;;22.50;59.70;;;;;;4926067;29;20059;-48
2022/07/04 01:52:52;;;;;;;3.53;1.95;;;22.50;59.70;;;;;;4925423;29;20505;-48
2022/07/04 01:55:18;;;;;;;2.90;1.70;;;22.50;59.90;;;;;;4925737;29;20031;-48
2022/07/04 01:57:43;;;;;;;3.08;1.80;;;22.50;60.10;;;;;;4924967;29;20039;-48
2022/07/04 02:02:58;;;;;;;3.20;1.88;;;22.40;60.00;;;;;;4926425;29;20050;-48
2022/07/04 02:05:24;;;;;;;2.33;1.33;;;22.40;60.20;;;;;;4925597;29;20219;-45
2022/07/04 02:07:50;;;;;;;2.97;1.75;;;22.40;60.00;;;;;;4926272;29;20054;-46
2022/07/04 02:10:16;;;;;;;4.10;1.70;;;22.40;60.00;;;;;;4925564;29;20079;-46
2022/07/04 02:15:26;;;;;;;3.05;1.63;;;22.40;59.80;;;;;;4926114;29;20112;-46
2022/07/04 02:17:51;;;;;;;3.38;1.50;;;22.40;59.90;;;;;;4926179;29;20103;-46
2022/07/04 02:20:17;;;;;;;3.13;1.88;;;22.40;59.90;;;;;;4925213;29;20086;-46
2022/07/04 02:22:43;;;;;;;2.45;1.70;;;22.40;59.90;;;;;;4926217;29;20110;-45
2022/07/04 02:25:11;;;;;;;2.80;1.60;;;22.40;60.10;;;;;;4926025;29;20035;-46
2022/07/04 02:27:37;;;;;;;3.10;1.73;;;22.30;59.90;;;;;;4924957;29;20083;-47
2022/07/04 02:30:03;;;;;;;3.00;1.65;;;22.30;60.00;;;;;;4925770;29;20042;-46
2022/07/04 02:32:29;;;;;;;3.10;1.77;;;22.30;60.00;;;;;;4925288;29;20079;-46
2022/07/04 02:34:55;;;;;;;2.60;1.70;;;22.30;60.00;;;;;;4926253;29;20031;-46
2022/07/04 02:37:20;;;;;;;3.40;1.70;;;22.30;60.00;;;;;;4943834;29;20083;-48
2022/07/04 02:39:46;;;;;;;4.25;1.80;;;22.30;59.90;;;;;;4928818;29;20032;-47
2022/07/04 02:42:12;;;;;;;4.05;1.83;;;22.40;60.10;;;;;;4928765;29;20034;-46
2022/07/04 02:44:37;;;;;;;3.65;2.00;;;22.30;60.40;;;;;;4929619;29;20028;-46
2022/07/04 02:47:03;;;;;;;4.38;2.03;;;22.30;60.40;;;;;;4929430;29;20348;-46
2022/07/04 02:49:29;;;;;;;3.10;2.00;;;22.30;60.40;;;;;;4928979;29;20091;-46
2022/07/04 02:51:55;;;;;;;2.65;1.65;;;22.30;60.40;;;;;;4929409;29;20316;-46
2022/07/04 02:54:20;;;;;;;4.45;2.03;;;22.30;60.40;;;;;;4927769;29;20053;-46
2022/07/04 02:56:46;;;;;;;3.20;1.70;;;22.40;60.40;;;;;;4929249;29;20078;-46
2022/07/04 02:59:11;;;;;;;3.85;2.00;;;22.30;60.50;;;;;;4928676;29;20515;-46
2022/07/04 03:01:37;;;;;;;3.60;2.22;;;22.30;60.50;;;;;;4928507;29;20031;-46
2022/07/04 03:04:03;;;;;;;3.70;2.17;;;22.40;60.60;;;;;;4929131;29;20107;-46
2022/07/04 03:06:29;;;;;;;3.67;2.20;;;22.40;60.60;;;;;;4928993;29;20221;-47
2022/07/04 03:08:56;;;;;;;3.30;1.90;;;22.40;60.60;;;;;;4928986;29;20086;-46
2022/07/04 03:11:21;;;;;;;3.05;1.98;;;22.40;60.80;;;;;;4928660;29;20051;-46
2022/07/04 03:13:47;;;;;;;4.15;2.40;;;22.30;60.80;;;;;;4929487;29;20504;-46
2022/07/04 03:16:13;;;;;;;3.38;2.38;;;22.30;60.80;;;;;;4928221;29;20555;-45
2022/07/04 03:18:39;;;;;;;3.05;1.80;;;22.40;60.90;;;;;;4928630;29;20039;-46
2022/07/04 03:21:05;;;;;;;3.20;2.20;;;22.40;61.10;;;;;;4928418;29;20058;-45
2022/07/04 03:23:34;;;;;;;3.60;2.15;;;22.30;61.00;;;;;;4926669;29;20024;-46
2022/07/04 03:26:01;;;;;;;4.47;2.60;;;22.40;61.20;;;;;;4928698;29;20571;-45
2022/07/04 03:28:27;;;;;;;4.22;2.33;;;22.40;61.50;;;;;;4928321;29;20138;-46
2022/07/04 03:30:53;;;;;;;3.83;2.38;;;22.30;61.70;;;;;;4928806;29;20091;-46
2022/07/04 03:33:19;;;;;;;3.13;2.13;;;22.30;61.70;;;;;;4928074;29;20036;-46
2022/07/04 03:35:45;;;;;;;3.50;2.08;;;22.40;61.40;;;;;;4928323;29;20055;-47
2022/07/04 03:38:11;;;;;;;3.38;2.30;;;22.30;61.40;;;;;;4928012;29;20028;-46
2022/07/04 03:40:38;;;;;;;3.00;1.85;;;22.30;61.00;;;;;;4928477;29;20606;-46
2022/07/04 03:43:07;;;;;;;4.53;2.05;;;22.30;60.80;;;;;;4926291;29;20032;-47
2022/07/04 03:45:33;;;;;;;4.28;2.22;;;22.30;60.90;;;;;;4928060;29;20040;-47
2022/07/04 03:48:02;;;;;;;3.38;2.30;;;22.30;60.90;;;;;;4927746;29;20391;-46
2022/07/04 03:50:27;;;;;;;3.10;2.08;;;22.30;61.20;;;;;;4928096;29;20070;-46
2022/07/04 03:52:53;;;;;;;2.60;1.80;;;22.30;61.70;;;;;;4928633;29;20063;-46
2022/07/04 03:55:19;;;;;;;4.50;2.42;;;22.30;61.90;;;;;;4928038;29;20028;-46
2022/07/04 03:57:44;;;;;;;3.60;2.40;;;22.30;62.10;;;;;;4924490;29;20639;-46
2022/07/04 04:00:11;;;;;;;3.88;2.53;;;22.30;62.20;;;;;;4927246;29;20036;-46
2022/07/04 04:02:37;;;;;;;5.47;2.53;;;22.30;62.20;;;;;;4928060;29;20020;-46
2022/07/04 04:07:48;;;;;;;3.85;2.40;;;22.30;62.40;;;;;;4927975;29;20027;-47
2022/07/04 04:10:14;;;;;;;3.92;2.65;;;22.30;62.40;;;;;;4927318;29;20031;-46
2022/07/04 04:12:40;;;;;;;3.55;2.50;;;22.30;62.50;;;;;;4930680;29;20039;-47
2022/07/04 04:15:06;;;;;;;3.80;2.30;;;22.20;62.50;;;;;;4936632;29;20024;-46
2022/07/04 04:17:32;;;;;;;5.15;2.70;;;22.20;62.70;;;;;;4936622;29;20114;-46
2022/07/04 04:19:57;;;;;;;5.93;2.60;;;22.20;62.90;;;;;;4935259;29;20110;-45
2022/07/04 04:22:23;;;;;;;4.93;3.00;;;22.20;63.10;;;;;;4932563;29;20322;-47
2022/07/04 04:24:49;;;;;;;3.17;2.28;;;22.10;63.50;;;;;;4931105;29;20416;-47
2022/07/04 04:27:14;;;;;;;3.95;2.50;;;22.10;63.40;;;;;;4936012;29;20472;-46
2022/07/04 04:29:40;;;;;;;3.75;2.47;;;22.10;63.60;;;;;;4936608;29;20696;-47
2022/07/04 04:32:06;;;;;;;3.58;2.47;;;22.10;64.40;;;;;;4934077;29;20094;-46
2022/07/04 04:34:33;;;;;;;4.88;2.53;;;22.00;64.00;;;;;;4936322;29;20039;-47
2022/07/04 04:36:59;;;;;;;3.83;2.53;;;22.00;64.10;;;;;;4935694;29;20114;-48
2022/07/04 04:39:25;;;;;;;10.00;4.50;;;22.00;64.70;;;;;;4935246;29;20113;-47
2022/07/04 04:41:51;;;;;;;18.25;6.13;;;21.90;67.40;;;;;;4936519;29;20363;-47
2022/07/04 04:44:16;;;;;;;8.98;4.05;;;22.00;71.60;;;;;;4933952;29;20032;-48
2022/07/04 04:46:42;;;;;;;7.88;4.15;;;22.00;68.80;;;;;;4935536;29;20377;-48
2022/07/04 04:49:08;;;;;;;12.10;5.65;;;22.00;69.40;;;;;;4935101;29;20387;-47
2022/07/04 04:51:33;;;;;;;9.98;4.70;;;22.10;72.10;;;;;;4935860;29;20039;-47
2022/07/04 04:53:59;;;;;;;7.47;3.63;;;22.20;72.30;;;;;;4935741;29;20027;-47
2022/07/04 04:56:25;;;;;;;8.85;4.00;;;22.20;70.80;;;;;;4930816;29;20039;-47
2022/07/04 04:58:50;;;;;;;5.70;3.58;;;22.40;69.70;;;;;;4933898;29;20115;-47
2022/07/04 05:01:16;;;;;;;5.50;3.30;;;22.40;68.60;;;;;;4927395;29;20802;-46
2022/07/04 05:03:42;;;;;;;5.57;2.78;;;22.50;67.90;;;;;;4916516;29;20401;-47
2022/07/04 05:06:08;;;;;;;5.25;3.42;;;22.60;66.90;;;;;;4932818;29;20060;-49
2022/07/04 05:08:33;;;;;;;4.90;2.83;;;22.70;66.60;;;;;;4934441;29;20048;-47
2022/07/04 05:10:59;;;;;;;5.45;2.80;;;22.80;65.30;;;;;;4935692;28;20114;-47
2022/07/04 05:13:25;;;;;;;4.10;2.58;;;22.80;65.60;;;;;;4935589;29;20032;-47
2022/07/04 05:15:51;;;;;;;4.30;2.50;;;22.90;65.30;;;;;;4934769;29;20023;-47
2022/07/04 05:18:16;;;;;;;4.20;2.60;;;22.90;64.20;;;;;;4922842;29;20133;-47
2022/07/04 05:20:42;;;;;;;5.13;2.45;;;23.00;64.00;;;;;;4934739;29;20522;-47
2022/07/04 05:23:08;;;;;;;4.82;2.83;;;23.00;63.30;;;;;;4926730;29;20725;-47
2022/07/04 05:25:34;;;;;;;6.70;2.55;;;23.10;62.90;;;;;;4931702;29;20029;-47
2022/07/04 05:27:59;;;;;;;6.28;2.88;;;23.20;63.30;;;;;;4934784;29;20031;-48
2022/07/04 05:30:25;;;;;;;5.82;2.25;;;23.20;62.50;;;;;;4931785;29;20183;-47
2022/07/04 05:32:51;;;;;;;5.85;2.60;;;23.20;62.60;;;;;;4929838;29;20083;-47
2022/07/04 05:35:17;;;;;;;5.65;3.13;;;23.30;62.90;;;;;;4935178;28;20201;-48
2022/07/04 05:37:43;;;;;;;4.28;2.30;;;23.30;63.30;;;;;;4934775;29;20566;-47
2022/07/04 05:40:10;;;;;;;3.40;2.42;;;23.40;63.30;;;;;;4934115;28;20028;-47
2022/07/04 05:42:36;;;;;;;3.58;1.88;;;23.40;63.20;;;;;;4933368;28;20087;-47
2022/07/04 05:45:02;;;;;;;4.60;2.40;;;23.50;63.30;;;;;;4934354;28;20020;-48
2022/07/04 05:47:28;;;;;;;4.57;2.30;;;23.50;63.40;;;;;;4934290;28;20031;-47
2022/07/04 05:49:54;;;;;;;3.95;2.17;;;23.50;61.70;;;;;;4933818;29;20027;-47
2022/07/04 05:52:20;;;;;;;4.45;2.60;;;23.60;62.20;;;;;;4933962;29;20115;-47
2022/07/04 05:54:46;;;;;;;3.78;2.55;;;23.60;62.50;;;;;;4934066;29;20196;-45
2022/07/04 05:57:11;;;;;;;3.78;2.35;;;23.70;62.60;;;;;;4933124;29;20646;-44
2022/07/04 05:59:37;;;;;;;3.30;2.22;;;23.70;62.90;;;;;;4933391;29;20035;-43
2022/07/04 06:02:03;;;;;;;4.65;2.10;;;23.70;62.60;;;;;;4933451;28;20027;-43
2022/07/04 06:04:29;;;;;;;3.85;2.28;;;23.80;62.10;;;;;;4934211;29;20031;-43
2022/07/04 06:06:54;;;;;;;4.18;2.15;;;23.80;61.80;;;;;;4934058;28;20035;-44
2022/07/04 06:09:20;;;;;;;4.03;2.40;;;23.90;61.80;;;;;;4933366;29;20024;-44
2022/07/04 06:11:46;;;;;;;3.65;2.00;;;23.90;61.70;;;;;;4933356;28;20020;-48
2022/07/04 06:14:12;;;;;;;4.20;2.00;;;23.90;61.40;;;;;;4931864;29;20024;-47
2022/07/04 06:16:38;;;;;;;3.38;1.80;;;24.00;60.70;;;;;;4933252;29;20020;-48
2022/07/04 06:19:03;;;;;;;3.95;2.05;;;24.00;60.20;;;;;;4932720;29;20031;-48
2022/07/04 06:21:29;;;;;;;3.83;2.38;;;24.00;59.70;;;;;;4933755;29;20316;-48
2022/07/04 06:23:57;;;;;;;2.90;1.90;;;24.10;59.80;;;;;;4934206;29;20031;-48
2022/07/04 06:26:23;;;;;;;4.72;2.10;;;24.10;59.70;;;;;;4933635;29;20491;-46
2022/07/04 06:28:48;;;;;;;3.55;2.03;;;24.10;59.50;;;;;;4932853;29;20039;-47
2022/07/04 06:31:14;;;;;;;4.20;2.08;;;24.10;59.40;;;;;;4934288;28;20031;-47
2022/07/04 06:36:25;;;;;;;3.22;1.75;;;24.20;60.40;;;;;;4924347;29;20094;-47
2022/07/04 06:38:50;;;;;;;5.05;1.83;;;24.20;60.40;;;;;;4925036;29;20036;-47
2022/07/04 06:41:16;;;;;;;3.40;1.98;;;24.20;59.90;;;;;;4924009;29;20043;-47
2022/07/04 06:43:42;;;;;;;2.95;1.80;;;24.30;59.50;;;;;;4924585;29;20032;-48
2022/07/04 06:46:08;;;;;;;4.03;1.90;;;24.30;59.10;;;;;;4933294;29;20709;-48
2022/07/04 06:48:33;;;;;;;2.80;1.67;;;24.30;58.70;;;;;;4932354;29;20427;-47
2022/07/04 06:50:59;;;;;;;3.42;1.80;;;24.30;58.60;;;;;;4942832;29;20029;-46
2022/07/04 06:53:25;;;;;;;2.45;1.60;;;24.30;58.50;;;;;;4932495;29;20830;-47
2022/07/04 06:55:50;;;;;;;3.55;1.80;;;24.40;58.20;;;;;;4925471;29;20072;-47
2022/07/04 06:58:16;;;;;;;3.97;1.70;;;24.40;58.00;;;;;;4923946;29;20036;-46
2022/07/04 07:00:42;;;;;;;2.75;1.50;;;24.40;57.80;;;;;;4924961;29;20032;-48
2022/07/04 07:03:08;;;;;;;2.58;1.52;;;24.40;57.90;;;;;;4924930;29;20023;-47
2022/07/04 07:05:36;;;;;;;3.30;1.85;;;24.40;57.60;;;;;;4923342;29;20024;-47
2022/07/04 07:08:04;;;;;;;3.42;1.70;;;24.50;57.50;;;;;;4913621;29;20024;-47
2022/07/04 07:10:32;;;;;;;2.85;1.58;;;24.50;57.60;;;;;;4924803;29;20032;-47
2022/07/04 07:12:58;;;;;;;2.78;1.60;;;24.50;57.40;;;;;;4919301;29;20119;-47
2022/07/04 07:15:24;;;;;;;2.78;1.70;;;24.50;57.30;;;;;;4924360;29;20523;-47
2022/07/04 07:17:49;;;;;;;2.58;1.60;;;24.50;57.40;;;;;;4924985;29;20059;-46
2022/07/04 07:20:15;;;;;;;2.80;1.48;;;24.50;57.20;;;;;;4923954;29;20028;-46
2022/07/04 07:22:42;;;;;;;3.03;1.38;;;24.50;57.20;;;;;;4927746;29;20027;-47
2022/07/04 07:25:11;;;;;;;2.97;1.65;;;24.60;57.20;;;;;;4914396;29;20496;-47
2022/07/04 07:27:37;;;;;;;2.88;1.50;;;24.60;57.00;;;;;;4926335;28;20079;-46
2022/07/04 07:30:05;;;;;;;2.65;1.42;;;24.60;57.00;;;;;;4927706;29;20040;-46
2022/07/04 07:32:31;;;;;;;4.10;1.88;;;24.60;56.90;;;;;;4928234;29;20040;-47
2022/07/04 07:34:56;;;;;;;2.63;1.52;;;24.60;56.80;;;;;;4927695;29;20496;-47
2022/07/04 07:37:22;;;;;;;2.60;1.50;;;24.60;56.70;;;;;;4928422;29;20087;-47
2022/07/04 07:39:49;;;;;;;2.20;1.35;;;24.60;56.50;;;;;;4927833;29;20032;-47
2022/07/04 07:42:16;;;;;;;2.60;1.50;;;24.70;56.70;;;;;;4927015;29;20500;-47
2022/07/04 07:44:45;;;;;;;3.05;1.58;;;24.70;57.30;;;;;;4928133;29;20308;-46
2022/07/04 07:47:11;;;;;;;2.92;1.58;;;24.70;56.60;;;;;;4927541;29;20377;-47
2022/07/04 07:49:37;;;;;;;2.40;1.30;;;24.70;56.50;;;;;;4927218;29;20035;-46
2022/07/04 07:52:03;;;;;;;2.40;1.45;;;24.70;56.40;;;;;;4927663;29;20051;-47
2022/07/04 07:54:28;;;;;;;2.60;1.42;;;24.70;56.40;;;;;;4927494;29;20087;-46
2022/07/04 07:56:54;;;;;;;2.50;1.40;;;24.70;56.30;;;;;;4927314;29;20120;-47
2022/07/04 07:59:20;;;;;;;2.83;1.33;;;24.70;56.10;;;;;;4927237;29;20440;-47
2022/07/04 08:01:45;;;;;;;2.30;1.30;;;24.70;56.30;;;;;;4927276;29;20039;-47
2022/07/04 08:06:55;;;;;;;3.15;1.48;;;24.80;56.20;;;;;;4926848;29;20031;-47
2022/07/04 08:09:21;;;;;;;2.03;1.15;;;24.80;56.00;;;;;;4927079;29;20024;-47
2022/07/04 08:11:47;;;;;;;2.42;1.35;;;24.80;55.90;;;;;;4927318;29;20491;-48
2022/07/04 08:14:13;;;;;;;2.65;1.55;;;24.80;55.80;;;;;;4926707;29;20035;-47
2022/07/04 08:16:40;;;;;;;2.35;1.35;;;24.80;55.90;;;;;;4927336;29;20042;-47
2022/07/04 08:19:06;;;;;;;2.35;1.48;;;24.80;55.90;;;;;;4926589;29;20034;-47
2022/07/04 08:21:32;;;;;;;3.78;1.50;;;24.80;55.90;;;;;;4927195;29;20043;-46
2022/07/04 08:23:57;;;;;;;2.75;1.35;;;24.90;56.00;;;;;;4926530;29;20042;-47
2022/07/04 08:26:24;;;;;;;2.65;1.23;;;24.90;55.80;;;;;;4926790;29;20034;-46
2022/07/04 08:28:51;;;;;;;2.10;1.20;;;24.90;55.80;;;;;;4926550;29;20042;-47
2022/07/04 08:31:18;;;;;;;1.98;1.13;;;24.90;55.60;;;;;;4927370;29;20523;-47
2022/07/04 08:33:44;;;;;;;1.88;1.20;;;24.90;55.70;;;;;;4926352;29;20035;-47
2022/07/04 08:36:10;;;;;;;2.50;1.30;;;24.90;56.40;;;;;;4927042;29;20031;-47
2022/07/04 08:38:35;;;;;;;2.03;1.20;;;24.90;55.50;;;;;;4926823;29;20400;-46
2022/07/04 08:41:03;;;;;;;2.45;1.20;;;24.90;55.60;;;;;;4926394;29;20031;-46
2022/07/04 08:43:33;;;;;;;1.83;1.17;;;24.90;55.70;;;;;;4926744;29;20032;-47
2022/07/04 08:46:00;;;;;;;2.00;1.10;;;24.90;55.60;;;;;;4926255;29;20027;-46
2022/07/04 08:48:26;;;;;;;1.85;1.20;;;24.90;55.50;;;;;;4926567;29;20027;-47
2022/07/04 08:50:58;;;;;;;2.58;1.20;;;24.90;55.50;;;;;;4925738;29;20032;-47
2022/07/04 08:53:29;;;;;;;2.22;1.17;;;25.00;55.60;;;;;;4926632;29;20078;-47
2022/07/04 08:58:42;;;;;;;2.03;1.23;;;25.00;55.60;;;;;;4926302;29;20039;-46
2022/07/04 09:01:14;;;;;;;2.15;1.13;;;25.00;55.50;;;;;;4925511;29;20023;-47
2022/07/04 09:03:42;;;;;;;2.50;1.05;;;25.00;55.60;;;;;;4926335;29;20055;-47
2022/07/04 09:06:09;;;;;;;2.22;1.10;;;25.00;55.50;;;;;;4926453;29;20531;-47
2022/07/04 09:08:35;;;;;;;4.30;1.40;;;25.00;55.50;;;;;;4926019;29;20506;-47
2022/07/04 09:11:02;;;;;;;2.55;1.20;;;25.00;55.50;;;;;;4926359;29;20036;-47
2022/07/04 09:13:29;;;;;;;1.95;1.20;;;25.00;55.40;;;;;;4925972;29;20349;-47
2022/07/04 09:15:55;;;;;;;2.47;1.42;;;25.00;55.30;;;;;;4926167;29;20042;-47
2022/07/04 09:18:23;;;;;;;1.90;1.20;;;25.00;55.30;;;;;;4925615;29;20531;-47
2022/07/04 09:20:49;;;;;;;2.25;1.25;;;25.00;55.30;;;;;;4926087;29;20571;-47
2022/07/04 09:23:27;;;;;;;1.67;1.10;;;25.00;55.30;;;;;;4926322;29;20245;-48
2022/07/04 09:26:11;;;;;;;1.80;1.10;;;25.00;55.30;;;;;;4925932;29;20035;-46
2022/07/04 09:28:39;;;;;;;2.63;1.20;;;25.10;55.30;;;;;;4925244;29;20032;-47
2022/07/04 09:31:18;;;;;;;2.30;1.13;;;25.10;55.30;;;;;;4925997;29;20067;-47
2022/07/04 09:33:50;;;;;;;1.80;1.00;;;25.10;55.30;;;;;;4926142;29;20334;-46
2022/07/04 09:36:17;;;;;;;1.98;1.10;;;25.10;55.30;;;;;;4940742;29;20115;-47
2022/07/04 09:38:44;;;;;;;2.65;1.35;;;25.10;55.30;;;;;;4925360;29;20114;-47
2022/07/04 09:41:24;;;;;;;2.05;1.20;;;25.10;55.30;;;;;;4925762;29;20123;-47
2022/07/04 09:44:04;;;;;;;1.85;1.08;;;25.10;55.30;;;;;;4925376;29;20175;-46
2022/07/04 09:46:31;;;;;;;2.08;1.17;;;25.10;55.30;;;;;;4925972;29;20031;-47
2022/07/04 09:48:57;;;;;;;2.30;1.20;;;25.10;55.20;;;;;;4925355;29;20079;-46
2022/07/04 09:51:58;;;;;;;1.90;1.10;;;25.10;55.20;;;;;;4924859;29;20878;-46
2022/07/04 09:54:27;;;;;;;2.03;1.23;;;25.10;55.20;;;;;;4884723;29;20032;-47
2022/07/04 09:56:55;;;;;;;1.63;1.10;;;25.10;55.10;;;;;;4917310;29;20039;-47
2022/07/04 09:59:22;;;;;;;1.83;1.02;;;25.10;55.10;;;;;;4923620;29;20032;-47
2022/07/04 10:01:48;;;;;;;2.22;1.17;;;25.20;55.10;;;;;;4924923;29;20277;-47
2022/07/04 10:04:14;;;;;;;1.70;0.98;;;25.10;55.00;;;;;;4925812;29;20086;-47
2022/07/04 10:06:42;;;;;;;1.85;1.00;;;25.20;55.10;;;;;;4939747;29;20047;-47
2022/07/04 10:09:16;;;;;;;1.90;1.10;;;25.20;55.00;;;;;;4925778;29;20052;-47
2022/07/04 10:11:44;;;;;;;1.67;1.02;;;25.10;55.00;;;;;;4925697;29;20305;-47
2022/07/04 10:14:12;;;;;;;2.25;1.25;;;25.10;55.00;;;;;;4920725;29;20040;-47
2022/07/04 10:16:39;;;;;;;1.35;0.82;;;25.10;54.90;;;;;;4906298;29;20251;-47
2022/07/04 10:19:07;;;;;;;2.15;1.17;;;25.20;55.00;;;;;;4906321;29;20430;-47
2022/07/04 10:21:33;;;;;;;2.30;1.50;;;25.20;54.90;;;;;;4906273;29;20024;-47
2022/07/04 10:24:00;;;;;;;1.85;1.08;;;25.20;54.90;;;;;;4921744;29;20020;-47
2022/07/04 10:26:28;;;;;;;2.10;1.00;;;25.20;54.90;;;;;;4925409;29;20026;-47
2022/07/04 10:28:55;;;;;;;1.45;1.00;;;25.20;54.90;;;;;;4924117;29;20090;-47
2022/07/04 10:31:23;;;;;;;2.00;0.98;;;25.20;54.90;;;;;;4925354;29;20036;-46
2022/07/04 10:33:50;;;;;;;2.75;1.10;;;25.20;54.90;;;;;;4925437;29;20142;-47
2022/07/04 10:36:20;;;;;;;2.28;1.33;;;25.20;54.90;;;;;;4925059;29;20028;-46
2022/07/04 10:38:58;;;;;;;1.85;1.00;;;25.20;54.90;;;;;;4924729;29;20496;-47
2022/07/04 10:41:25;;;;;;;1.77;1.05;;;25.30;55.00;;;;;;4924193;29;20094;-47
2022/07/04 10:43:52;;;;;;;2.25;1.13;;;25.20;54.90;;;;;;4924527;29;20197;-47
2022/07/04 10:46:24;;;;;;;1.63;0.80;;;25.20;54.90;;;;;;4925706;29;20060;-47
2022/07/04 10:48:51;;;;;;;1.85;1.05;;;25.30;54.80;;;;;;4924995;29;20373;-46
2022/07/04 10:51:34;;;;;;;1.63;0.90;;;25.30;54.80;;;;;;4924926;29;20479;-46
2022/07/04 10:54:06;;;;;;;1.40;0.75;;;25.30;54.80;;;;;;4924738;29;20092;-48
2022/07/04 10:56:55;;;;;;;1.67;0.93;;;25.30;54.70;;;;;;4925958;29;20496;-46
2022/07/04 10:59:29;;;;;;;1.17;0.65;;;25.30;54.60;;;;;;4926839;29;20350;-46
2022/07/04 11:02:07;;;;;;;1.75;0.85;;;25.30;54.60;;;;;;4928292;29;20553;-47
2022/07/04 11:04:56;;;;;;;1.75;1.00;;;25.30;54.60;;;;;;4928788;29;20095;-46
2022/07/04 11:07:30;;;;;;;1.80;1.10;;;25.30;54.50;;;;;;4922962;29;20123;-47
2022/07/04 11:12:54;;;;;;;2.17;1.02;;;25.30;54.60;;;;;;4927873;29;20028;-47
2022/07/04 11:15:32;;;;;;;1.35;0.77;;;25.30;54.50;;;;;;4928608;29;20102;-47
2022/07/04 11:18:00;;;;;;;1.20;0.73;;;25.30;54.40;;;;;;4928308;29;20096;-47
2022/07/04 11:20:28;;;;;;;1.63;0.98;;;25.30;54.40;;;;;;4927904;29;20035;-47
2022/07/04 11:23:10;;;;;;;1.58;0.85;;;25.30;54.40;;;;;;4928001;29;20153;-46
2022/07/04 11:25:38;;;;;;;1.40;0.90;;;25.30;54.50;;;;;;4928220;29;20062;-47
2022/07/04 11:28:22;;;;;;;1.50;0.90;;;25.30;54.40;;;;;;4927408;29;20496;-47
2022/07/04 11:30:52;;;;;;;1.65;0.90;;;25.30;54.50;;;;;;4928227;29;20134;-47
2022/07/04 11:33:24;;;;;;;1.65;1.00;;;25.40;54.40;;;;;;4927717;29;20039;-47
2022/07/04 11:36:22;;;;;;;1.55;1.00;;;25.40;55.20;;;;;;4928011;29;20031;-47
2022/07/04 11:38:59;;;;;;;1.40;0.90;;;25.40;54.40;;;;;;4894232;29;20043;-47
2022/07/04 11:47:12;;;;;;;2.05;0.82;;;25.40;54.10;;;;;;4927702;29;20515;-47
2022/07/04 11:49:47;;;;;;;1.13;0.73;;;25.40;54.20;;;;;;4926852;29;20028;-46
2022/07/04 11:52:13;;;;;;;1.67;1.02;;;25.40;54.10;;;;;;4927315;29;20580;-47
2022/07/04 11:54:41;;;;;;;1.33;0.77;;;25.40;54.10;;;;;;4927265;29;20115;-46
2022/07/04 11:57:23;;;;;;;1.40;0.80;;;25.50;53.80;;;;;;4927114;29;20237;-46
2022/07/04 12:00:14;;;;;;;1.20;0.70;;;25.50;54.00;;;;;;4926673;29;20039;-47
2022/07/04 12:02:41;;;;;;;1.45;0.80;;;25.50;53.90;;;;;;4908428;29;20087;-46
2022/07/04 12:05:09;;;;;;;1.50;0.90;;;25.50;54.00;;;;;;4908508;29;20107;-47
2022/07/04 12:07:37;;;;;;;1.30;0.75;;;25.50;53.90;;;;;;4908270;29;20032;-47
2022/07/04 12:10:13;;;;;;;1.20;0.80;;;25.50;53.80;;;;;;4907724;29;20436;-47
2022/07/04 12:13:08;;;;;;;1.70;0.82;;;25.50;53.70;;;;;;4909843;29;20035;-46
2022/07/04 12:15:37;;;;;;;1.23;0.80;;;25.50;53.90;;;;;;4927192;29;20035;-47
2022/07/04 12:18:05;;;;;;;1.20;0.75;;;25.50;53.70;;;;;;4927352;29;20028;-47
2022/07/04 12:20:31;;;;;;;1.73;0.90;;;25.60;53.80;;;;;;4926695;29;20035;-46
2022/07/04 12:22:59;;;;;;;1.92;0.95;;;25.60;53.70;;;;;;4927573;29;20047;-47
2022/07/04 12:25:28;;;;;;;1.80;1.02;;;25.60;53.60;;;;;;4927286;29;20507;-47
2022/07/04 12:27:55;;;;;;;2.10;1.00;;;25.60;53.70;;;;;;4926522;29;20117;-47
2022/07/04 12:30:21;;;;;;;1.50;0.88;;;25.70;53.60;;;;;;4926652;29;20076;-47
2022/07/04 12:32:50;;;;;;;1.60;0.90;;;25.60;53.60;;;;;;4926504;29;20731;-46
2022/07/04 12:35:36;;;;;;;0.95;0.70;;;25.70;53.60;;;;;;4927017;29;20032;-47
2022/07/04 12:38:06;;;;;;;1.30;0.90;;;25.70;53.60;;;;;;4926181;29;20035;-46
2022/07/04 12:40:37;;;;;;;1.20;0.73;;;25.70;53.50;;;;;;4926771;29;20028;-47
2022/07/04 12:43:03;;;;;;;1.63;0.90;;;25.80;53.40;;;;;;4926070;29;20226;-47
2022/07/04 12:46:04;;;;;;;1.17;0.77;;;25.80;53.40;;;;;;4925554;29;20141;-47
2022/07/04 12:48:30;;;;;;;1.30;0.70;;;25.80;53.40;;;;;;4885405;29;20064;-47
2022/07/04 12:51:17;;;;;;;1.77;0.82;;;25.80;53.30;;;;;;4918332;29;20074;-47
2022/07/04 12:53:45;;;;;;;1.83;0.90;;;25.80;53.30;;;;;;4926422;29;20031;-47
2022/07/04 12:56:27;;;;;;;1.42;0.85;;;25.80;53.20;;;;;;4926895;29;20560;-47
2022/07/04 12:58:54;;;;;;;1.63;0.88;;;25.90;53.20;;;;;;4925308;29;20028;-47
2022/07/04 13:01:19;;;;;;;1.25;0.63;;;25.90;53.10;;;;;;4914730;29;20298;-48
2022/07/04 13:03:45;;;;;;;1.50;0.90;;;25.90;53.10;;;;;;4907228;29;20021;-47
2022/07/04 13:06:11;;;;;;;1.73;1.00;;;25.90;52.90;;;;;;4907623;29;20039;-47
2022/07/04 13:08:36;;;;;;;1.75;0.90;;;25.90;53.00;;;;;;4907381;29;20063;-47
2022/07/04 13:13:46;;;;;;;1.60;0.80;;;26.00;53.30;;;;;;4916498;29;20636;-47
2022/07/04 13:16:14;;;;;;;1.25;0.73;;;26.00;53.20;;;;;;4925337;29;20039;-47